sensor_id;sensor_type;location;lat;lon;timestamp;pressure;altitude;pressure_sealevel;temperature;humidity
58937;BME280;44718;52.346;4.970;2023-04-22T00:02:17;61159.78;;;-146.50;100.00
58937;BME280;44718;52.346;4.970;2023-04-22T00:04:43;61159.78;;;-146.50;100.00
58937;BME280;44718;52.346;4.970;2023-04-22T00:07:20;61180.41;;;-146.50;100.00
58937;BME280;44718;52.346;4.970;2023-04-22T00:09:48;61153.59;;;-146.50;100.00
58937;BME280;44718;52.346;4.970;2023-04-22T00:12:13;61168.03;;;-146.50;100.00
58937;BME280;44718;52.346;4.970;2023-04-22T00:14:39;61203.13;;;-146.50;100.00
58937;BME280;44718;52.346;4.970;2023-04-22T00:17:05;61168.03;;;-146.50;100.00
58937;BME280;44718;52.346;4.970;2023-04-22T00:19:31;61188.69;;;-146.50;100.00
58937;BME280;44718;52.346;4.970;2023-04-22T00:21:57;61161.84;;;-146.50;100.00
58937;BME280;44718;52.346;4.970;2023-04-22T00:24:23;61157.72;;;-146.50;100.00
58937;BME280;44718;52.346;4.970;2023-04-22T00:26:48;61209.31;;;-146.50;100.00
58937;BME280;44718;52.346;4.970;2023-04-22T00:29:13;61223.75;;;-146.50;100.00
58937;BME280;44718;52.346;4.970;2023-04-22T00:31:39;61184.53;;;-146.50;100.00
58937;BME280;44718;52.346;4.970;2023-04-22T00:34:04;61184.53;;;-146.50;100.00
58937;BME280;44718;52.346;4.970;2023-04-22T00:36:29;61170.09;;;-146.50;100.00
58937;BME280;44718;52.346;4.970;2023-04-22T00:38:55;61174.22;;;-146.50;100.00
58937;BME280;44718;52.346;4.970;2023-04-22T00:41:22;61188.69;;;-146.50;100.00
58937;BME280;44718;52.346;4.970;2023-04-22T00:43:47;61201.06;;;-146.50;100.00
58937;BME280;44718;52.346;4.970;2023-04-22T00:46:15;61184.53;;;-146.50;100.00
58937;BME280;44718;52.346;4.970;2023-04-22T00:48:40;61149.47;;;-146.50;100.00
58937;BME280;44718;52.346;4.970;2023-04-22T00:51:06;61182.47;;;-146.50;100.00
58937;BME280;44718;52.346;4.970;2023-04-22T00:53:32;61217.56;;;-146.50;100.00
58937;BME280;44718;52.346;4.970;2023-04-22T00:55:58;61180.41;;;-146.50;100.00
58937;BME280;44718;52.346;4.970;2023-04-22T00:58:27;61168.03;;;-146.50;100.00
58937;BME280;44718;52.346;4.970;2023-04-22T01:00:53;61178.34;;;-146.50;100.00
58937;BME280;44718;52.346;4.970;2023-04-22T01:03:21;61201.06;;;-146.50;100.00
58937;BME280;44718;52.346;4.970;2023-04-22T01:05:48;61221.69;;;-146.50;100.00
58937;BME280;44718;52.346;4.970;2023-04-22T01:08:14;61188.69;;;-146.50;100.00
58937;BME280;44718;52.346;4.970;2023-04-22T01:10:41;61194.88;;;-146.50;100.00
58937;BME280;44718;52.346;4.970;2023-04-22T01:13:06;61227.88;;;-146.50;100.00
58937;BME280;44718;52.346;4.970;2023-04-22T01:15:32;61184.53;;;-146.50;100.00
58937;BME280;44718;52.346;4.970;2023-04-22T01:17:58;61174.22;;;-146.50;100.00
58937;BME280;44718;52.346;4.970;2023-04-22T01:20:26;61194.88;;;-146.50;100.00
58937;BME280;44718;52.346;4.970;2023-04-22T01:22:54;61211.38;;;-146.50;100.00
58937;BME280;44718;52.346;4.970;2023-04-22T01:25:24;61174.22;;;-146.50;100.00
58937;BME280;44718;52.346;4.970;2023-04-22T01:27:50;61174.22;;;-146.50;100.00
58937;BME280;44718;52.346;4.970;2023-04-22T01:30:15;61209.31;;;-146.50;100.00
58937;BME280;44718;52.346;4.970;2023-04-22T01:32:41;61211.38;;;-146.50;100.00
58937;BME280;44718;52.346;4.970;2023-04-22T01:35:08;61211.38;;;-146.50;100.00
58937;BME280;44718;52.346;4.970;2023-04-22T01:37:34;61211.38;;;-146.50;100.00
58937;BME280;44718;52.346;4.970;2023-04-22T01:40:03;61201.06;;;-146.50;100.00
58937;BME280;44718;52.346;4.970;2023-04-22T01:42:32;61236.13;;;-146.50;100.00
58937;BME280;44718;52.346;4.970;2023-04-22T01:44:57;61188.69;;;-146.50;100.00
58937;BME280;44718;52.346;4.970;2023-04-22T01:47:22;61199.00;;;-146.50;100.00
58937;BME280;44718;52.346;4.970;2023-04-22T01:49:49;61219.63;;;-146.50;100.00
58937;BME280;44718;52.346;4.970;2023-04-22T01:52:18;61201.06;;;-146.50;100.00
58937;BME280;44718;52.346;4.970;2023-04-22T01:54:43;61207.25;;;-146.50;100.00
58937;BME280;44718;52.346;4.970;2023-04-22T01:57:12;61217.56;;;-146.50;100.00
58937;BME280;44718;52.346;4.970;2023-04-22T01:59:40;61196.94;;;-146.50;100.00
58937;BME280;44718;52.346;4.970;2023-04-22T02:02:06;61184.53;;;-146.50;100.00
58937;BME280;44718;52.346;4.970;2023-04-22T02:04:31;61209.31;;;-146.50;100.00
58937;BME280;44718;52.346;4.970;2023-04-22T02:06:57;61172.16;;;-146.50;100.00
58937;BME280;44718;52.346;4.970;2023-04-22T02:09:22;61194.88;;;-146.50;100.00
58937;BME280;44718;52.346;4.970;2023-04-22T02:11:48;61219.63;;;-146.50;100.00
58937;BME280;44718;52.346;4.970;2023-04-22T02:14:13;61215.50;;;-146.50;100.00
58937;BME280;44718;52.346;4.970;2023-04-22T02:16:42;61192.81;;;-146.50;100.00
58937;BME280;44718;52.346;4.970;2023-04-22T02:19:08;61221.69;;;-146.50;100.00
58937;BME280;44718;52.346;4.970;2023-04-22T02:21:33;61209.31;;;-146.50;100.00
58937;BME280;44718;52.346;4.970;2023-04-22T02:23:59;61217.56;;;-146.50;100.00
58937;BME280;44718;52.346;4.970;2023-04-22T02:26:27;61192.81;;;-146.50;100.00
58937;BME280;44718;52.346;4.970;2023-04-22T02:28:52;61215.50;;;-146.50;100.00
58937;BME280;44718;52.346;4.970;2023-04-22T02:31:17;61186.59;;;-146.50;100.00
58937;BME280;44718;52.346;4.970;2023-04-22T02:33:43;61192.81;;;-146.50;100.00
58937;BME280;44718;52.346;4.970;2023-04-22T02:36:08;61188.69;;;-146.50;100.00
58937;BME280;44718;52.346;4.970;2023-04-22T02:38:34;61213.44;;;-146.50;100.00
58937;BME280;44718;52.346;4.970;2023-04-22T02:40:59;61174.22;;;-146.50;100.00
58937;BME280;44718;52.346;4.970;2023-04-22T02:43:25;61207.25;;;-146.50;100.00
58937;BME280;44718;52.346;4.970;2023-04-22T02:45:50;61184.53;;;-146.50;100.00
58937;BME280;44718;52.346;4.970;2023-04-22T02:48:16;61223.75;;;-146.50;100.00
58937;BME280;44718;52.346;4.970;2023-04-22T02:50:41;61186.59;;;-146.50;100.00
58937;BME280;44718;52.346;4.970;2023-04-22T02:53:07;61238.19;;;-146.50;100.00
58937;BME280;44718;52.346;4.970;2023-04-22T02:55:33;61246.44;;;-146.50;100.00
58937;BME280;44718;52.346;4.970;2023-04-22T02:57:58;61203.13;;;-146.50;100.00
58937;BME280;44718;52.346;4.970;2023-04-22T03:00:25;61209.31;;;-146.50;100.00
58937;BME280;44718;52.346;4.970;2023-04-22T03:02:59;61203.13;;;-146.50;100.00
58937;BME280;44718;52.346;4.970;2023-04-22T03:05:28;61196.94;;;-146.50;100.00
58937;BME280;44718;52.346;4.970;2023-04-22T03:07:54;61186.59;;;-146.50;100.00
58937;BME280;44718;52.346;4.970;2023-04-22T03:10:23;61184.53;;;-146.50;100.00
58937;BME280;44718;52.346;4.970;2023-04-22T03:12:49;61217.56;;;-146.50;100.00
58937;BME280;44718;52.346;4.970;2023-04-22T03:15:15;61215.50;;;-146.50;100.00
58937;BME280;44718;52.346;4.970;2023-04-22T03:17:40;61205.19;;;-146.50;100.00
58937;BME280;44718;52.346;4.970;2023-04-22T03:20:09;61225.81;;;-146.50;100.00
58937;BME280;44718;52.346;4.970;2023-04-22T03:22:35;61229.94;;;-146.50;100.00
58937;BME280;44718;52.346;4.970;2023-04-22T03:25:02;61170.09;;;-146.50;100.00
58937;BME280;44718;52.346;4.970;2023-04-22T03:27:28;61209.31;;;-146.50;100.00
58937;BME280;44718;52.346;4.970;2023-04-22T03:29:53;61246.44;;;-146.50;100.00
58937;BME280;44718;52.346;4.970;2023-04-22T03:32:19;61225.81;;;-146.50;100.00
58937;BME280;44718;52.346;4.970;2023-04-22T03:34:47;61232.00;;;-146.50;100.00
58937;BME280;44718;52.346;4.970;2023-04-22T03:37:12;61178.34;;;-146.50;100.00
58937;BME280;44718;52.346;4.970;2023-04-22T03:39:41;61219.63;;;-146.50;100.00
58937;BME280;44718;52.346;4.970;2023-04-22T03:42:09;61180.41;;;-146.50;100.00
58937;BME280;44718;52.346;4.970;2023-04-22T03:44:40;61209.31;;;-146.50;100.00
58937;BME280;44718;52.346;4.970;2023-04-22T03:47:05;61199.00;;;-146.50;100.00
58937;BME280;44718;52.346;4.970;2023-04-22T03:49:36;61232.00;;;-146.50;100.00
58937;BME280;44718;52.346;4.970;2023-04-22T03:52:02;61211.38;;;-146.50;100.00
58937;BME280;44718;52.346;4.970;2023-04-22T03:54:28;61172.16;;;-146.50;100.00
58937;BME280;44718;52.346;4.970;2023-04-22T03:56:54;61246.44;;;-146.50;100.00
58937;BME280;44718;52.346;4.970;2023-04-22T03:59:21;61203.13;;;-146.50;100.00
58937;BME280;44718;52.346;4.970;2023-04-22T04:01:50;61209.31;;;-146.50;100.00
58937;BME280;44718;52.346;4.970;2023-04-22T04:04:18;61229.94;;;-146.50;100.00
58937;BME280;44718;52.346;4.970;2023-04-22T04:06:49;61221.69;;;-146.50;100.00
58937;BME280;44718;52.346;4.970;2023-04-22T04:09:18;61229.94;;;-146.50;100.00
58937;BME280;44718;52.346;4.970;2023-04-22T04:11:44;61215.50;;;-146.50;100.00
58937;BME280;44718;52.346;4.970;2023-04-22T04:14:10;61246.44;;;-146.50;100.00
58937;BME280;44718;52.346;4.970;2023-04-22T04:16:41;61240.25;;;-146.50;100.00
58937;BME280;44718;52.346;4.970;2023-04-22T04:19:12;61201.06;;;-146.50;100.00
58937;BME280;44718;52.346;4.970;2023-04-22T04:21:37;61205.19;;;-146.50;100.00
58937;BME280;44718;52.346;4.970;2023-04-22T04:24:05;61250.56;;;-146.50;100.00
58937;BME280;44718;52.346;4.970;2023-04-22T04:26:34;61242.31;;;-146.50;100.00
58937;BME280;44718;52.346;4.970;2023-04-22T04:29:13;61213.44;;;-146.50;100.00
58937;BME280;44718;52.346;4.970;2023-04-22T04:31:41;61213.44;;;-146.50;100.00
58937;BME280;44718;52.346;4.970;2023-04-22T04:34:06;61213.44;;;-146.50;100.00
58937;BME280;44718;52.346;4.970;2023-04-22T04:36:34;61213.44;;;-146.50;100.00
58937;BME280;44718;52.346;4.970;2023-04-22T04:39:10;61219.63;;;-146.50;100.00
58937;BME280;44718;52.346;4.970;2023-04-22T04:41:36;61180.41;;;-146.50;100.00
58937;BME280;44718;52.346;4.970;2023-04-22T04:44:04;61227.88;;;-146.50;100.00
58937;BME280;44718;52.346;4.970;2023-04-22T04:46:33;61199.00;;;-146.50;100.00
58937;BME280;44718;52.346;4.970;2023-04-22T04:48:59;61260.88;;;-146.50;100.00
58937;BME280;44718;52.346;4.970;2023-04-22T04:51:27;61165.97;;;-146.50;100.00
58937;BME280;44718;52.346;4.970;2023-04-22T04:53:56;61213.44;;;-146.50;100.00
58937;BME280;44718;52.346;4.970;2023-04-22T04:56:23;61209.31;;;-146.50;100.00
58937;BME280;44718;52.346;4.970;2023-04-22T04:58:49;61229.94;;;-146.50;100.00
58937;BME280;44718;52.346;4.970;2023-04-22T05:01:18;61256.75;;;-146.50;100.00
58937;BME280;44718;52.346;4.970;2023-04-22T05:03:44;61238.19;;;-146.50;100.00
58937;BME280;44718;52.346;4.970;2023-04-22T05:06:12;61221.69;;;-146.50;100.00
58937;BME280;44718;52.346;4.970;2023-04-22T05:08:41;61234.06;;;-146.50;100.00
58937;BME280;44718;52.346;4.970;2023-04-22T05:11:08;61217.56;;;-146.50;100.00
58937;BME280;44718;52.346;4.970;2023-04-22T05:13:33;61215.50;;;-146.50;100.00
58937;BME280;44718;52.346;4.970;2023-04-22T05:15:59;61211.38;;;-146.50;100.00
58937;BME280;44718;52.346;4.970;2023-04-22T05:18:25;61238.19;;;-146.50;100.00
58937;BME280;44718;52.346;4.970;2023-04-22T05:20:51;61225.81;;;-146.50;100.00
58937;BME280;44718;52.346;4.970;2023-04-22T05:23:19;61225.81;;;-146.50;100.00
58937;BME280;44718;52.346;4.970;2023-04-22T05:25:45;61209.31;;;-146.50;100.00
58937;BME280;44718;52.346;4.970;2023-04-22T05:28:12;61203.13;;;-146.50;100.00
58937;BME280;44718;52.346;4.970;2023-04-22T05:30:50;61207.25;;;-146.50;100.00
58937;BME280;44718;52.346;4.970;2023-04-22T05:33:16;61217.56;;;-146.50;100.00
58937;BME280;44718;52.346;4.970;2023-04-22T05:35:42;61246.44;;;-146.50;100.00
58937;BME280;44718;52.346;4.970;2023-04-22T05:38:08;61207.25;;;-146.50;100.00
58937;BME280;44718;52.346;4.970;2023-04-22T05:40:39;61196.94;;;-146.50;100.00
58937;BME280;44718;52.346;4.970;2023-04-22T05:43:05;61172.16;;;-146.50;100.00
58937;BME280;44718;52.346;4.970;2023-04-22T05:45:31;61219.63;;;-146.50;100.00
58937;BME280;44718;52.346;4.970;2023-04-22T05:47:57;61190.75;;;-146.50;100.00
58937;BME280;44718;52.346;4.970;2023-04-22T05:50:24;61201.06;;;-146.50;100.00
58937;BME280;44718;52.346;4.970;2023-04-22T05:52:59;61188.69;;;-146.50;100.00
58937;BME280;44718;52.346;4.970;2023-04-22T05:55:26;61207.25;;;-146.50;100.00
58937;BME280;44718;52.346;4.970;2023-04-22T05:57:51;61165.97;;;-146.50;100.00
58937;BME280;44718;52.346;4.970;2023-04-22T06:00:30;61219.63;;;-146.50;100.00
58937;BME280;44718;52.346;4.970;2023-04-22T06:03:11;61213.44;;;-146.50;100.00
58937;BME280;44718;52.346;4.970;2023-04-22T06:05:36;61184.53;;;-146.50;100.00
58937;BME280;44718;52.346;4.970;2023-04-22T06:08:05;61182.47;;;-146.50;100.00
58937;BME280;44718;52.346;4.970;2023-04-22T06:10:32;61188.69;;;-146.50;100.00
58937;BME280;44718;52.346;4.970;2023-04-22T06:12:58;61199.00;;;-146.50;100.00
58937;BME280;44718;52.346;4.970;2023-04-22T06:15:24;61192.81;;;-146.50;100.00
58937;BME280;44718;52.346;4.970;2023-04-22T06:17:50;61170.09;;;-146.50;100.00
58937;BME280;44718;52.346;4.970;2023-04-22T06:20:15;61190.75;;;-146.50;100.00
58937;BME280;44718;52.346;4.970;2023-04-22T06:22:40;61151.53;;;-146.50;100.00
58937;BME280;44718;52.346;4.970;2023-04-22T06:25:10;61180.41;;;-146.50;100.00
58937;BME280;44718;52.346;4.970;2023-04-22T06:27:36;61168.03;;;-146.50;100.00
58937;BME280;44718;52.346;4.970;2023-04-22T06:30:03;61174.22;;;-146.50;100.00
58937;BME280;44718;52.346;4.970;2023-04-22T06:32:29;61188.69;;;-146.50;100.00
58937;BME280;44718;52.346;4.970;2023-04-22T06:34:55;61223.75;;;-146.50;100.00
58937;BME280;44718;52.346;4.970;2023-04-22T06:37:20;61192.81;;;-146.50;100.00
58937;BME280;44718;52.346;4.970;2023-04-22T06:39:46;61186.59;;;-146.50;100.00
58937;BME280;44718;52.346;4.970;2023-04-22T06:42:26;61184.53;;;-146.50;100.00
58937;BME280;44718;52.346;4.970;2023-04-22T06:45:21;61159.78;;;-146.50;100.00
58937;BME280;44718;52.346;4.970;2023-04-22T06:48:15;61182.47;;;-146.50;100.00
58937;BME280;44718;52.346;4.970;2023-04-22T06:51:00;61172.16;;;-146.50;100.00
58937;BME280;44718;52.346;4.970;2023-04-22T06:53:26;61199.00;;;-146.50;100.00
58937;BME280;44718;52.346;4.970;2023-04-22T06:55:52;61205.19;;;-146.50;100.00
58937;BME280;44718;52.346;4.970;2023-04-22T06:58:19;61196.94;;;-146.50;100.00
58937;BME280;44718;52.346;4.970;2023-04-22T07:00:45;61161.84;;;-146.50;100.00
58937;BME280;44718;52.346;4.970;2023-04-22T07:03:10;61165.97;;;-146.50;100.00
58937;BME280;44718;52.346;4.970;2023-04-22T07:05:36;61182.47;;;-146.50;100.00
58937;BME280;44718;52.346;4.970;2023-04-22T07:08:01;61163.91;;;-146.50;100.00
58937;BME280;44718;52.346;4.970;2023-04-22T07:10:27;61170.09;;;-146.50;100.00
58937;BME280;44718;52.346;4.970;2023-04-22T07:13:11;61163.91;;;-146.50;100.00
58937;BME280;44718;52.346;4.970;2023-04-22T07:15:36;61147.41;;;-146.50;100.00
58937;BME280;44718;52.346;4.970;2023-04-22T07:18:01;61145.34;;;-146.50;100.00
58937;BME280;44718;52.346;4.970;2023-04-22T07:20:27;61203.13;;;-146.50;100.00
58937;BME280;44718;52.346;4.970;2023-04-22T07:22:52;61147.41;;;-146.50;100.00
58937;BME280;44718;52.346;4.970;2023-04-22T07:25:17;61153.59;;;-146.50;100.00
58937;BME280;44718;52.346;4.970;2023-04-22T07:27:43;61145.34;;;-146.50;100.00
58937;BME280;44718;52.346;4.970;2023-04-22T07:30:10;61153.59;;;-146.50;100.00
58937;BME280;44718;52.346;4.970;2023-04-22T07:32:38;61147.41;;;-146.50;100.00
58937;BME280;44718;52.346;4.970;2023-04-22T07:35:04;61170.09;;;-146.50;100.00
58937;BME280;44718;52.346;4.970;2023-04-22T07:37:30;61153.59;;;-146.50;100.00
58937;BME280;44718;52.346;4.970;2023-04-22T07:39:55;61159.78;;;-146.50;100.00
58937;BME280;44718;52.346;4.970;2023-04-22T07:42:20;61168.03;;;-146.50;100.00
58937;BME280;44718;52.346;4.970;2023-04-22T07:44:46;61170.09;;;-146.50;100.00
58937;BME280;44718;52.346;4.970;2023-04-22T07:47:11;61135.03;;;-146.50;100.00
58937;BME280;44718;52.346;4.970;2023-04-22T07:49:37;61095.84;;;-146.50;100.00
58937;BME280;44718;52.346;4.970;2023-04-22T07:52:02;61132.97;;;-146.50;100.00
58937;BME280;44718;52.346;4.970;2023-04-22T07:54:28;61147.41;;;-146.50;100.00
58937;BME280;44718;52.346;4.970;2023-04-22T07:56:53;61126.78;;;-146.50;100.00
58937;BME280;44718;52.346;4.970;2023-04-22T07:59:18;61132.97;;;-146.50;100.00
58937;BME280;44718;52.346;4.970;2023-04-22T08:01:46;61130.91;;;-146.50;100.00
58937;BME280;44718;52.346;4.970;2023-04-22T08:04:12;61147.41;;;-146.50;100.00
58937;BME280;44718;52.346;4.970;2023-04-22T08:06:37;61114.41;;;-146.50;100.00
58937;BME280;44718;52.346;4.970;2023-04-22T08:09:05;61120.59;;;-146.50;100.00
58937;BME280;44718;52.346;4.970;2023-04-22T08:11:31;61110.28;;;-146.50;100.00
58937;BME280;44718;52.346;4.970;2023-04-22T08:13:56;61102.03;;;-146.50;100.00
58937;BME280;44718;52.346;4.970;2023-04-22T08:16:22;61081.41;;;-146.50;100.00
58937;BME280;44718;52.346;4.970;2023-04-22T08:18:47;61112.34;;;-146.50;100.00
58937;BME280;44718;52.346;4.970;2023-04-22T08:21:13;61104.09;;;-146.50;100.00
58937;BME280;44718;52.346;4.970;2023-04-22T08:23:38;61077.28;;;-146.50;100.00
58937;BME280;44718;52.346;4.970;2023-04-22T08:26:04;61097.91;;;-146.50;100.00
58937;BME280;44718;52.346;4.970;2023-04-22T08:28:29;61087.59;;;-146.50;100.00
58937;BME280;44718;52.346;4.970;2023-04-22T08:30:55;61108.22;;;-146.50;100.00
58937;BME280;44718;52.346;4.970;2023-04-22T08:33:20;61112.34;;;-146.50;100.00
58937;BME280;44718;52.346;4.970;2023-04-22T08:35:49;61069.00;;;-146.50;100.00
58937;BME280;44718;52.346;4.970;2023-04-22T08:38:17;61093.78;;;-146.50;100.00
58937;BME280;44718;52.346;4.970;2023-04-22T08:40:42;61046.31;;;-146.50;100.00
58937;BME280;44718;52.346;4.970;2023-04-22T08:43:08;61110.28;;;-146.50;100.00
58937;BME280;44718;52.346;4.970;2023-04-22T08:45:37;61093.78;;;-146.50;100.00
58937;BME280;44718;52.346;4.970;2023-04-22T08:48:04;61106.16;;;-146.50;100.00
58937;BME280;44718;52.346;4.970;2023-04-22T08:50:29;61137.09;;;-146.50;100.00
58937;BME280;44718;52.346;4.970;2023-04-22T08:52:56;61093.78;;;-146.50;100.00
58937;BME280;44718;52.346;4.970;2023-04-22T08:55:22;61102.03;;;-146.50;100.00
58937;BME280;44718;52.346;4.970;2023-04-22T08:57:48;61077.28;;;-146.50;100.00
58937;BME280;44718;52.346;4.970;2023-04-22T09:00:14;61089.66;;;-146.50;100.00
58937;BME280;44718;52.346;4.970;2023-04-22T09:02:40;61048.38;;;-146.50;100.00
58937;BME280;44718;52.346;4.970;2023-04-22T09:05:09;61122.66;;;-146.50;100.00
58937;BME280;44718;52.346;4.970;2023-04-22T09:07:36;61093.78;;;-146.50;100.00
58937;BME280;44718;52.346;4.970;2023-04-22T09:10:02;61118.53;;;-146.50;100.00
58937;BME280;44718;52.346;4.970;2023-04-22T09:12:28;61168.03;;;-146.50;100.00
58937;BME280;44718;52.346;4.970;2023-04-22T09:14:55;61083.47;;;-146.50;100.00
58937;BME280;44718;52.346;4.970;2023-04-22T09:17:34;61106.16;;;-146.50;100.00
58937;BME280;44718;52.346;4.970;2023-04-22T09:20:03;61106.16;;;-146.50;100.00
58937;BME280;44718;52.346;4.970;2023-04-22T09:22:41;61120.59;;;-146.50;100.00
58937;BME280;44718;52.346;4.970;2023-04-22T09:25:26;61089.66;;;-146.50;100.00
58937;BME280;44718;52.346;4.970;2023-04-22T09:27:57;61081.41;;;-146.50;100.00
58937;BME280;44718;52.346;4.970;2023-04-22T09:30:27;61095.84;;;-146.50;100.00
58937;BME280;44718;52.346;4.970;2023-04-22T09:32:58;61110.28;;;-146.50;100.00
58937;BME280;44718;52.346;4.970;2023-04-22T09:37:57;61091.72;;;-146.50;100.00
58937;BME280;44718;52.346;4.970;2023-04-22T09:40:23;61112.34;;;-146.50;100.00
58937;BME280;44718;52.346;4.970;2023-04-22T09:42:53;61066.94;;;-146.50;100.00
58937;BME280;44718;52.346;4.970;2023-04-22T09:47:53;61089.66;;;-146.50;100.00
58937;BME280;44718;52.346;4.970;2023-04-22T09:50:20;61075.22;;;-146.50;100.00
58937;BME280;44718;52.346;4.970;2023-04-22T09:52:53;61110.28;;;-146.50;100.00
58937;BME280;44718;52.346;4.970;2023-04-22T09:55:21;61073.16;;;-146.50;100.00
58937;BME280;44718;52.346;4.970;2023-04-22T09:57:50;61112.34;;;-146.50;100.00
58937;BME280;44718;52.346;4.970;2023-04-22T10:00:16;61089.66;;;-146.50;100.00
58937;BME280;44718;52.346;4.970;2023-04-22T10:02:41;61091.72;;;-146.50;100.00
58937;BME280;44718;52.346;4.970;2023-04-22T10:05:07;61102.03;;;-146.50;100.00
58937;BME280;44718;52.346;4.970;2023-04-22T10:07:34;61085.53;;;-146.50;100.00
58937;BME280;44718;52.346;4.970;2023-04-22T10:10:01;61081.41;;;-146.50;100.00
58937;BME280;44718;52.346;4.970;2023-04-22T10:12:27;61071.06;;;-146.50;100.00
58937;BME280;44718;52.346;4.970;2023-04-22T10:14:52;61091.72;;;-146.50;100.00
58937;BME280;44718;52.346;4.970;2023-04-22T10:17:18;61122.66;;;-146.50;100.00
58937;BME280;44718;52.346;4.970;2023-04-22T10:19:46;61108.22;;;-146.50;100.00
58937;BME280;44718;52.346;4.970;2023-04-22T10:22:12;61102.03;;;-146.50;100.00
58937;BME280;44718;52.346;4.970;2023-04-22T10:24:38;61104.09;;;-146.50;100.00
58937;BME280;44718;52.346;4.970;2023-04-22T10:27:04;61135.03;;;-146.50;100.00
58937;BME280;44718;52.346;4.970;2023-04-22T10:29:36;61077.28;;;-146.50;100.00
58937;BME280;44718;52.346;4.970;2023-04-22T10:34:35;61056.63;;;-146.50;100.00
58937;BME280;44718;52.346;4.970;2023-04-22T10:37:06;61071.06;;;-146.50;100.00
58937;BME280;44718;52.346;4.970;2023-04-22T10:39:34;61044.25;;;-146.50;100.00
58937;BME280;44718;52.346;4.970;2023-04-22T10:47:09;61077.28;;;-146.50;100.00
58937;BME280;44718;52.346;4.970;2023-04-22T10:49:34;61073.16;;;-146.50;100.00
58937;BME280;44718;52.346;4.970;2023-04-22T10:52:00;61066.94;;;-146.50;100.00
58937;BME280;44718;52.346;4.970;2023-04-22T10:57:01;61056.63;;;-146.50;100.00
58937;BME280;44718;52.346;4.970;2023-04-22T10:59:27;61102.03;;;-146.50;100.00
58937;BME280;44718;52.346;4.970;2023-04-22T11:01:53;61081.41;;;-146.50;100.00
58937;BME280;44718;52.346;4.970;2023-04-22T11:04:22;61056.63;;;-146.50;100.00
58937;BME280;44718;52.346;4.970;2023-04-22T11:15:18;61029.81;;;-146.50;100.00
58937;BME280;44718;52.346;4.970;2023-04-22T11:17:46;61056.63;;;-146.50;100.00
58937;BME280;44718;52.346;4.970;2023-04-22T11:20:13;61064.88;;;-146.50;100.00
58937;BME280;44718;52.346;4.970;2023-04-22T11:22:43;61046.31;;;-146.50;100.00
58937;BME280;44718;52.346;4.970;2023-04-22T11:25:08;61058.69;;;-146.50;100.00
58937;BME280;44718;52.346;4.970;2023-04-22T11:27:35;61060.75;;;-146.50;100.00
58937;BME280;44718;52.346;4.970;2023-04-22T11:30:11;61073.16;;;-146.50;100.00
58937;BME280;44718;52.346;4.970;2023-04-22T11:32:42;61073.16;;;-146.50;100.00
58937;BME280;44718;52.346;4.970;2023-04-22T11:35:10;61062.81;;;-146.50;100.00
58937;BME280;44718;52.346;4.970;2023-04-22T11:37:43;61085.53;;;-146.50;100.00
58937;BME280;44718;52.346;4.970;2023-04-22T11:40:15;61071.06;;;-146.50;100.00
58937;BME280;44718;52.346;4.970;2023-04-22T11:44:38;61077.28;;;-146.50;100.00
58937;BME280;44718;52.346;4.970;2023-04-22T11:47:04;61069.00;;;-146.50;100.00
58937;BME280;44718;52.346;4.970;2023-04-22T11:49:30;61064.88;;;-146.50;100.00
58937;BME280;44718;52.346;4.970;2023-04-22T11:51:57;61075.22;;;-146.50;100.00
